createdAt,value
2023-05-10T00:00:57.012Z,22.40
2023-05-10T00:03:24.260Z,22.40
2023-05-10T00:05:51.227Z,22.41
2023-05-10T00:08:18.159Z,22.41
2023-05-10T00:10:45.161Z,22.43
2023-05-10T00:13:12.144Z,22.44
2023-05-10T00:15:39.058Z,22.45
2023-05-10T00:18:06.471Z,22.45
2023-05-10T00:20:33.503Z,22.43
2023-05-10T00:23:00.518Z,22.43
2023-05-10T00:25:27.649Z,22.42
2023-05-10T00:27:56.553Z,22.39
2023-05-10T00:30:23.513Z,22.38
2023-05-10T00:32:50.981Z,22.37
2023-05-10T00:35:18.038Z,22.38
2023-05-10T00:37:44.959Z,22.37
2023-05-10T00:40:12.489Z,22.38
2023-05-10T00:42:40.696Z,22.39
2023-05-10T00:45:08.362Z,22.39
2023-05-10T00:47:36.301Z,22.38
2023-05-10T00:50:03.834Z,22.41
2023-05-10T00:52:31.525Z,22.42
2023-05-10T00:54:59.695Z,22.42
2023-05-10T00:57:26.709Z,22.41
2023-05-10T00:59:53.797Z,22.40
2023-05-10T01:02:20.783Z,22.38
2023-05-10T01:04:48.544Z,22.35
2023-05-10T01:07:15.616Z,22.33
2023-05-10T01:09:44.015Z,22.34
2023-05-10T01:12:12.557Z,22.35
2023-05-10T01:14:39.901Z,22.34
2023-05-10T01:17:08.561Z,22.36
2023-05-10T01:19:38.133Z,22.37
2023-05-10T01:22:48.420Z,22.37
2023-05-10T01:25:40.513Z,22.36
2023-05-10T01:28:22.859Z,22.34
2023-05-10T01:31:10.239Z,22.35
2023-05-10T01:33:53.619Z,22.32
2023-05-10T01:36:39.093Z,22.31
2023-05-10T01:39:15.776Z,22.30
2023-05-10T01:42:05.162Z,22.28
2023-05-10T01:45:01.032Z,22.25
2023-05-10T01:47:38.843Z,22.22
2023-05-10T01:50:26.383Z,22.22
2023-05-10T01:52:56.096Z,22.21
2023-05-10T01:55:26.621Z,22.19
2023-05-10T01:58:03.702Z,22.18
2023-05-10T02:00:32.574Z,22.16
2023-05-10T02:03:05.247Z,22.15
2023-05-10T02:05:34.573Z,22.14
2023-05-10T02:08:04.186Z,22.14
2023-05-10T02:10:32.265Z,22.14
2023-05-10T02:13:01.494Z,22.13
2023-05-10T02:15:29.841Z,22.13
2023-05-10T02:17:58.760Z,22.12
2023-05-10T02:20:27.312Z,22.11
2023-05-10T02:22:57.218Z,22.10
2023-05-10T02:25:26.329Z,22.09
2023-05-10T02:27:57.252Z,22.10
2023-05-10T02:30:25.329Z,22.11
2023-05-10T02:32:53.526Z,22.12
2023-05-10T02:35:22.289Z,22.11
2023-05-10T02:37:49.960Z,22.11
2023-05-10T02:40:19.592Z,22.12
2023-05-10T02:42:48.658Z,22.11
2023-05-10T02:45:20.831Z,22.13
2023-05-10T02:47:48.499Z,22.13
2023-05-10T02:50:16.347Z,22.13
2023-05-10T02:52:55.690Z,22.12
2023-05-10T02:55:33.586Z,22.12
2023-05-10T02:58:02.696Z,22.11
2023-05-10T03:00:30.667Z,22.10
2023-05-10T03:02:57.939Z,22.09
2023-05-10T03:05:25.568Z,22.10
2023-05-10T03:07:53.943Z,22.09
2023-05-10T03:10:27.852Z,22.09
2023-05-10T03:13:06.291Z,22.08
2023-05-10T03:16:05.700Z,22.07
2023-05-10T03:18:42.695Z,22.05
2023-05-10T03:21:13.693Z,22.04
2023-05-10T03:23:47.260Z,22.05
2023-05-10T03:26:21.818Z,22.06
2023-05-10T03:28:51.014Z,22.05
2023-05-10T03:31:18.804Z,22.05
2023-05-10T03:33:50.466Z,22.05
2023-05-10T03:36:20.768Z,22.04
2023-05-10T03:38:48.071Z,22.03
2023-05-10T03:41:15.477Z,22.02
2023-05-10T03:43:42.737Z,22.03
2023-05-10T03:46:09.772Z,22.03
2023-05-10T03:48:36.920Z,22.02
2023-05-10T03:51:03.945Z,22.01
2023-05-10T03:53:31.118Z,22.01
2023-05-10T03:55:58.470Z,22.00
2023-05-10T03:58:26.145Z,21.99
2023-05-10T04:00:53.502Z,22.01
2023-05-10T04:03:21.637Z,22.01
2023-05-10T04:05:48.826Z,22.01
2023-05-10T04:08:17.542Z,22.01
2023-05-10T04:10:44.756Z,22.00
2023-05-10T04:13:12.379Z,22.01
2023-05-10T04:15:39.558Z,21.99
2023-05-10T04:18:08.863Z,21.99
2023-05-10T04:20:36.119Z,22.00
2023-05-10T04:23:03.060Z,22.00
2023-05-10T04:25:30.041Z,21.99
2023-05-10T04:27:57.054Z,21.99
2023-05-10T04:30:23.999Z,21.99
2023-05-10T04:32:50.980Z,21.98
2023-05-10T04:35:18.088Z,21.98
2023-05-10T04:37:45.141Z,21.99
2023-05-10T04:40:12.604Z,22.00
2023-05-10T04:42:42.822Z,22.00
2023-05-10T04:45:10.884Z,22.00
2023-05-10T04:47:38.391Z,22.02
2023-05-10T04:50:07.853Z,22.03
2023-05-10T04:52:34.798Z,22.04
2023-05-10T04:55:01.849Z,22.07
2023-05-10T04:57:28.913Z,22.08
2023-05-10T04:59:55.834Z,22.09
2023-05-10T05:02:23.066Z,22.09
2023-05-10T05:04:50.133Z,22.09
2023-05-10T05:07:17.054Z,22.08
2023-05-10T05:09:43.947Z,22.08
2023-05-10T05:12:15.299Z,22.09
2023-05-10T05:14:42.521Z,22.08
2023-05-10T05:17:09.463Z,22.07
2023-05-10T05:19:36.977Z,22.07
2023-05-10T05:22:04.209Z,22.06
2023-05-10T05:24:37.024Z,22.06
2023-05-10T05:27:04.105Z,22.04
2023-05-10T05:29:31.154Z,22.03
2023-05-10T05:31:58.156Z,22.04
2023-05-10T05:34:25.453Z,22.04
2023-05-10T05:36:53.012Z,22.04
2023-05-10T05:39:19.885Z,22.04
2023-05-10T05:41:47.850Z,22.04
2023-05-10T05:44:14.770Z,22.03
2023-05-10T05:46:41.822Z,22.03
2023-05-10T05:49:08.765Z,22.04
2023-05-10T05:51:37.838Z,22.06
2023-05-10T05:54:05.727Z,22.05
2023-05-10T05:56:32.712Z,22.06
2023-05-10T05:58:59.720Z,22.06
2023-05-10T06:01:26.678Z,22.06
2023-05-10T06:03:53.856Z,22.05
2023-05-10T06:06:21.082Z,22.05
2023-05-10T06:08:47.961Z,22.05
2023-05-10T06:11:14.958Z,22.06
2023-05-10T06:13:43.364Z,22.06
2023-05-10T06:16:10.514Z,22.06
2023-05-10T06:18:37.455Z,22.06
2023-05-10T06:21:04.580Z,22.06
2023-05-10T06:23:32.427Z,22.05
2023-05-10T06:25:59.600Z,22.05
2023-05-10T06:28:26.587Z,22.06
2023-05-10T06:30:53.600Z,22.07
2023-05-10T06:33:20.860Z,22.07
2023-05-10T06:35:47.710Z,22.07
2023-05-10T06:38:14.638Z,22.08
2023-05-10T06:40:45.053Z,22.08
2023-05-10T06:43:12.002Z,22.08
2023-05-10T06:45:39.156Z,22.08
2023-05-10T06:48:06.665Z,22.08
2023-05-10T06:50:34.475Z,22.09
2023-05-10T06:53:03.052Z,22.08
2023-05-10T06:55:30.645Z,22.09
2023-05-10T06:57:58.688Z,22.09
2023-05-10T07:00:25.842Z,22.08
2023-05-10T07:02:53.177Z,22.09
2023-05-10T07:05:21.417Z,22.10
2023-05-10T07:07:49.129Z,22.13
2023-05-10T07:10:22.086Z,22.15
2023-05-10T07:12:56.888Z,22.15
2023-05-10T07:15:29.402Z,22.17
2023-05-10T07:18:02.980Z,22.18
2023-05-10T07:20:36.643Z,22.19
2023-05-10T07:23:11.438Z,22.20
2023-05-10T07:25:42.779Z,22.22
2023-05-10T07:28:09.947Z,22.25
2023-05-10T07:30:37.304Z,22.26
2023-05-10T07:33:04.346Z,22.28
2023-05-10T07:35:34.297Z,22.29
2023-05-10T07:38:02.246Z,22.32
2023-05-10T07:40:30.147Z,22.33
2023-05-10T07:42:57.648Z,22.33
2023-05-10T07:45:24.920Z,22.36
2023-05-10T07:47:52.132Z,22.37
2023-05-10T07:50:20.214Z,22.39
2023-05-10T07:52:47.448Z,22.39
2023-05-10T07:55:14.710Z,22.40
2023-05-10T07:57:42.296Z,22.40
2023-05-10T08:00:10.704Z,22.40
2023-05-10T08:02:41.909Z,22.38
2023-05-10T08:05:09.277Z,22.36
2023-05-10T08:07:36.629Z,22.34
2023-05-10T08:10:04.721Z,22.32
2023-05-10T08:12:34.625Z,22.31
2023-05-10T08:15:01.870Z,22.31
2023-05-10T08:17:29.560Z,22.30
2023-05-10T08:19:56.622Z,22.29
2023-05-10T08:22:23.837Z,22.27
2023-05-10T08:24:50.878Z,22.26
2023-05-10T08:27:17.771Z,22.25
2023-05-10T08:29:50.187Z,22.25
2023-05-10T08:32:18.354Z,22.24
2023-05-10T08:34:45.530Z,22.23
2023-05-10T08:37:14.503Z,22.24
2023-05-10T08:39:41.940Z,22.23
2023-05-10T08:42:11.024Z,22.22
2023-05-10T08:44:38.521Z,22.20
2023-05-10T08:47:10.308Z,22.19
2023-05-10T08:49:39.170Z,22.18
2023-05-10T08:52:10.103Z,22.17
2023-05-10T08:54:39.830Z,22.17
2023-05-10T08:57:07.476Z,22.17
2023-05-10T08:59:35.161Z,22.17
2023-05-10T09:02:03.468Z,22.17
2023-05-10T09:04:31.037Z,22.16
2023-05-10T09:06:58.748Z,22.14
2023-05-10T09:09:27.327Z,22.13
2023-05-10T09:11:55.497Z,22.13
2023-05-10T09:14:26.068Z,22.12
2023-05-10T09:16:55.471Z,22.12
2023-05-10T09:19:22.409Z,22.12
2023-05-10T09:21:50.555Z,22.12
2023-05-10T09:24:17.399Z,22.14
2023-05-10T09:26:49.706Z,22.15
2023-05-10T09:29:17.645Z,22.15
2023-05-10T09:31:47.513Z,22.15
2023-05-10T09:34:29.597Z,22.16
2023-05-10T09:36:59.179Z,22.17
2023-05-10T09:39:33.477Z,22.20
2023-05-10T09:42:04.828Z,22.24
2023-05-10T09:44:32.818Z,22.28
2023-05-10T09:47:00.321Z,22.31
2023-05-10T09:49:27.895Z,22.34
2023-05-10T09:52:06.658Z,22.37
2023-05-10T09:54:35.155Z,22.40
2023-05-10T09:57:02.505Z,22.42
2023-05-10T09:59:30.946Z,22.44
2023-05-10T10:01:59.676Z,22.45
2023-05-10T10:04:27.474Z,22.45
2023-05-10T10:07:05.477Z,22.44
2023-05-10T10:09:33.660Z,22.44
2023-05-10T10:12:01.695Z,22.44
2023-05-10T10:14:29.648Z,22.45
2023-05-10T10:17:07.439Z,22.46
2023-05-10T10:19:37.077Z,22.47
2023-05-10T10:22:04.504Z,22.50
2023-05-10T10:24:31.551Z,22.52
2023-05-10T10:27:05.666Z,22.54
2023-05-10T10:29:45.623Z,22.56
2023-05-10T10:32:34.374Z,22.57
2023-05-10T10:35:01.584Z,22.57
2023-05-10T10:37:46.665Z,22.57
2023-05-10T10:40:33.631Z,22.59
2023-05-10T10:43:25.463Z,22.59
2023-05-10T10:46:18.576Z,22.60
2023-05-10T10:48:52.636Z,22.61
2023-05-10T10:51:19.827Z,22.61
2023-05-10T10:53:49.402Z,22.61
2023-05-10T10:56:16.945Z,22.60
2023-05-10T10:58:52.624Z,22.58
2023-05-10T11:01:20.873Z,22.56
2023-05-10T11:04:00.336Z,22.54
2023-05-10T11:06:35.014Z,22.52
2023-05-10T11:09:14.604Z,22.50
2023-05-10T11:11:59.619Z,22.49
2023-05-10T11:14:27.053Z,22.47
2023-05-10T11:16:54.176Z,22.48
2023-05-10T11:19:21.452Z,22.48
2023-05-10T11:21:51.799Z,22.50
2023-05-10T11:24:21.647Z,22.52
2023-05-10T11:26:53.448Z,22.54
2023-05-10T11:29:21.547Z,22.54
2023-05-10T11:31:50.414Z,22.56
2023-05-10T11:34:28.004Z,22.56
2023-05-10T11:36:56.232Z,22.56
2023-05-10T11:39:27.948Z,22.55
2023-05-10T11:41:55.910Z,22.55
2023-05-10T11:44:23.037Z,22.53
2023-05-10T11:46:51.046Z,22.52
2023-05-10T11:49:18.278Z,22.51
2023-05-10T11:51:45.860Z,22.50
2023-05-10T11:54:13.734Z,22.49
2023-05-10T11:56:42.194Z,22.49
2023-05-10T11:59:09.771Z,22.48
2023-05-10T12:01:37.311Z,22.47
2023-05-10T12:04:04.981Z,22.45
2023-05-10T12:06:37.767Z,22.44
2023-05-10T12:09:09.153Z,22.43
2023-05-10T12:11:43.310Z,22.41
2023-05-10T12:14:11.694Z,22.40
2023-05-10T12:16:38.869Z,22.40
2023-05-10T12:19:06.735Z,22.40
2023-05-10T12:21:34.535Z,22.41
2023-05-10T12:24:06.350Z,22.42
2023-05-10T12:26:34.091Z,22.42
2023-05-10T12:29:19.178Z,22.43
2023-05-10T12:32:03.552Z,22.43
2023-05-10T12:34:37.208Z,22.43
2023-05-10T12:37:04.880Z,22.42
2023-05-10T12:39:43.587Z,22.42
2023-05-10T12:42:11.233Z,22.43
2023-05-10T12:44:39.274Z,22.42
2023-05-10T12:47:07.260Z,22.42
2023-05-10T12:49:35.300Z,22.41
2023-05-10T12:52:02.837Z,22.40
2023-05-10T12:54:34.411Z,22.40
2023-05-10T12:57:01.456Z,22.40
2023-05-10T12:59:28.585Z,22.40
2023-05-10T13:01:55.639Z,22.40
2023-05-10T13:04:22.684Z,22.39
2023-05-10T13:06:49.730Z,22.38
2023-05-10T13:09:16.653Z,22.36
2023-05-10T13:11:44.226Z,22.34
2023-05-10T13:14:11.122Z,22.31
2023-05-10T13:16:38.228Z,22.29
2023-05-10T13:19:05.728Z,22.29
2023-05-10T13:21:32.832Z,22.28
2023-05-10T13:23:59.976Z,22.27
2023-05-10T13:26:27.505Z,22.25
2023-05-10T13:28:56.756Z,22.24
2023-05-10T13:31:23.790Z,22.22
2023-05-10T13:33:51.037Z,22.21
2023-05-10T13:36:18.498Z,22.19
2023-05-10T13:38:45.442Z,22.20
2023-05-10T13:41:12.485Z,22.19
2023-05-10T13:43:39.435Z,22.19
2023-05-10T13:46:06.511Z,22.17
2023-05-10T13:48:34.856Z,22.17
2023-05-10T13:51:03.069Z,22.16
2023-05-10T13:53:30.327Z,22.16
2023-05-10T13:55:57.345Z,22.15
2023-05-10T13:58:24.809Z,22.14
2023-05-10T14:00:51.693Z,22.14
2023-05-10T14:03:18.817Z,22.13
2023-05-10T14:05:46.444Z,22.13
2023-05-10T14:08:14.519Z,22.13
2023-05-10T14:10:41.498Z,22.12
2023-05-10T14:13:09.127Z,22.12
2023-05-10T14:15:36.174Z,22.11
2023-05-10T14:18:03.727Z,22.10
2023-05-10T14:20:31.134Z,22.10
2023-05-10T14:22:58.092Z,22.11
2023-05-10T14:25:25.487Z,22.12
2023-05-10T14:27:52.530Z,22.12
2023-05-10T14:30:19.787Z,22.13
2023-05-10T14:32:46.694Z,22.12
2023-05-10T14:35:15.566Z,22.11
2023-05-10T14:37:44.715Z,22.12
2023-05-10T14:40:12.235Z,22.12
2023-05-10T14:42:39.630Z,22.12
2023-05-10T14:45:07.089Z,22.12
2023-05-10T14:47:34.453Z,22.12
2023-05-10T14:50:01.424Z,22.12
2023-05-10T14:52:29.271Z,22.12
2023-05-10T14:54:56.497Z,22.14
2023-05-10T14:57:23.546Z,22.14
2023-05-10T14:59:50.497Z,22.15
2023-05-10T15:02:18.162Z,22.15
2023-05-10T15:04:45.505Z,22.15
2023-05-10T15:07:15.640Z,22.15
2023-05-10T15:09:42.967Z,22.14
2023-05-10T15:12:09.866Z,22.14
2023-05-10T15:14:37.508Z,22.14
2023-05-10T15:17:05.125Z,22.17
2023-05-10T15:19:32.105Z,22.19
2023-05-10T15:21:58.990Z,22.21
2023-05-10T15:24:26.794Z,22.22
2023-05-10T15:26:53.801Z,22.24
2023-05-10T15:29:21.141Z,22.25
2023-05-10T15:31:49.302Z,22.25
2023-05-10T15:34:16.526Z,22.27
2023-05-10T15:36:43.649Z,22.28
2023-05-10T15:39:10.735Z,22.30
2023-05-10T15:41:37.628Z,22.32
2023-05-10T15:44:05.127Z,22.33
2023-05-10T15:46:32.364Z,22.34
2023-05-10T15:49:02.610Z,22.35
2023-05-10T15:51:30.032Z,22.35
2023-05-10T15:54:06.600Z,22.36
2023-05-10T15:56:35.379Z,22.37
2023-05-10T15:59:02.610Z,22.38
2023-05-10T16:01:30.999Z,22.38
2023-05-10T16:03:58.153Z,22.39
2023-05-10T16:06:25.312Z,22.39
2023-05-10T16:08:54.709Z,22.37
2023-05-10T16:11:22.187Z,22.35
2023-05-10T16:13:49.267Z,22.33
2023-05-10T16:16:17.546Z,22.33
2023-05-10T16:18:44.574Z,22.33
2023-05-10T16:21:11.954Z,22.34
2023-05-10T16:23:38.821Z,22.34
2023-05-10T16:26:05.729Z,22.35
2023-05-10T16:28:33.492Z,22.37
2023-05-10T16:31:01.712Z,22.36
2023-05-10T16:33:29.131Z,22.34
2023-05-10T16:35:57.288Z,22.32
2023-05-10T16:38:24.441Z,22.33
2023-05-10T16:40:51.353Z,22.34
2023-05-10T16:43:18.503Z,22.32
2023-05-10T16:45:45.488Z,22.32
2023-05-10T16:48:12.941Z,22.32
2023-05-10T16:50:43.981Z,22.32
2023-05-10T16:53:11.848Z,22.32
2023-05-10T16:55:38.894Z,22.33
2023-05-10T16:58:06.365Z,22.34
2023-05-10T17:00:33.522Z,22.34
2023-05-10T17:03:00.539Z,22.34
2023-05-10T17:05:27.748Z,22.33
2023-05-10T17:07:54.954Z,22.32
2023-05-10T17:10:22.331Z,22.33
2023-05-10T17:12:49.458Z,22.34
2023-05-10T17:15:17.788Z,22.34
2023-05-10T17:17:45.838Z,22.36
2023-05-10T17:20:12.990Z,22.35
2023-05-10T17:22:43.349Z,22.36
2023-05-10T17:25:10.728Z,22.36
2023-05-10T17:27:37.665Z,22.35
2023-05-10T17:30:05.763Z,22.34
2023-05-10T17:32:35.598Z,22.34
2023-05-10T17:35:05.374Z,22.34
2023-05-10T17:37:35.640Z,22.33
2023-05-10T17:40:04.006Z,22.35
2023-05-10T17:42:30.810Z,22.39
2023-05-10T17:44:57.711Z,22.41
2023-05-10T17:47:25.215Z,22.43
2023-05-10T17:49:52.371Z,22.46
2023-05-10T17:52:19.805Z,22.48
2023-05-10T17:54:47.626Z,22.49
2023-05-10T17:57:14.542Z,22.49
2023-05-10T17:59:44.650Z,22.48
2023-05-10T18:02:12.429Z,22.48
2023-05-10T18:04:43.814Z,22.46
2023-05-10T18:07:11.667Z,22.46
2023-05-10T18:09:38.648Z,22.45
2023-05-10T18:12:06.410Z,22.44
2023-05-10T18:14:40.485Z,22.44
2023-05-10T18:17:09.997Z,22.47
2023-05-10T18:19:37.385Z,22.49
2023-05-10T18:22:04.587Z,22.50
2023-05-10T18:24:38.264Z,22.51
2023-05-10T18:27:08.285Z,22.51
2023-05-10T18:29:36.432Z,22.51
2023-05-10T18:32:09.729Z,22.52
2023-05-10T18:34:39.271Z,22.52
2023-05-10T18:37:08.102Z,22.52
2023-05-10T18:39:36.645Z,22.53
2023-05-10T18:42:05.522Z,22.52
2023-05-10T18:44:33.501Z,22.51
2023-05-10T18:47:00.639Z,22.51
2023-05-10T18:49:29.720Z,22.52
2023-05-10T18:51:59.587Z,22.53
2023-05-10T18:54:27.114Z,22.53
2023-05-10T18:56:54.059Z,22.53
2023-05-10T18:59:20.944Z,22.53
2023-05-10T19:01:50.182Z,22.53
2023-05-10T19:04:18.417Z,22.51
2023-05-10T19:06:45.529Z,22.51
2023-05-10T19:09:12.570Z,22.50
2023-05-10T19:11:39.922Z,22.49
2023-05-10T19:14:06.839Z,22.49
2023-05-10T19:16:35.932Z,22.49
2023-05-10T19:19:03.038Z,22.50
2023-05-10T19:21:30.538Z,22.51
2023-05-10T19:23:57.948Z,22.53
2023-05-10T19:26:26.634Z,22.54
2023-05-10T19:28:54.180Z,22.56
2023-05-10T19:31:22.172Z,22.56
2023-05-10T19:33:49.601Z,22.56
2023-05-10T19:36:16.685Z,22.56
2023-05-10T19:38:43.702Z,22.57
2023-05-10T19:41:11.813Z,22.58
2023-05-10T19:43:40.037Z,22.57
2023-05-10T19:46:07.055Z,22.56
2023-05-10T19:48:34.067Z,22.56
2023-05-10T19:51:08.431Z,22.55
2023-05-10T19:53:36.533Z,22.55
2023-05-10T19:56:07.676Z,22.54
2023-05-10T19:58:34.704Z,22.53
2023-05-10T20:01:02.818Z,22.55
2023-05-10T20:03:30.678Z,22.56
2023-05-10T20:05:57.706Z,22.55
2023-05-10T20:08:25.584Z,22.55
2023-05-10T20:10:52.815Z,22.55
2023-05-10T20:13:19.870Z,22.54
2023-05-10T20:15:47.111Z,22.53
2023-05-10T20:18:14.245Z,22.52
2023-05-10T20:20:41.721Z,22.50
2023-05-10T20:23:08.702Z,22.50
2023-05-10T20:25:36.020Z,22.49
2023-05-10T20:28:04.191Z,22.48
2023-05-10T20:30:31.557Z,22.47
2023-05-10T20:32:59.354Z,22.45
2023-05-10T20:35:26.562Z,22.45
2023-05-10T20:37:54.238Z,22.43
2023-05-10T20:40:21.962Z,22.42
2023-05-10T20:42:49.861Z,22.41
2023-05-10T20:45:17.223Z,22.42
2023-05-10T20:47:44.412Z,22.44
2023-05-10T20:50:11.918Z,22.44
2023-05-10T20:52:38.859Z,22.45
2023-05-10T20:55:06.541Z,22.45
2023-05-10T20:57:33.578Z,22.46
2023-05-10T21:00:00.848Z,22.47
2023-05-10T21:02:28.529Z,22.47
2023-05-10T21:04:57.822Z,22.47
2023-05-10T21:07:25.260Z,22.46
2023-05-10T21:09:52.628Z,22.46
2023-05-10T21:12:19.756Z,22.46
2023-05-10T21:14:48.021Z,22.45
2023-05-10T21:17:20.211Z,22.45
2023-05-10T21:19:48.445Z,22.44
2023-05-10T21:22:16.775Z,22.44
2023-05-10T21:24:44.008Z,22.43
2023-05-10T21:27:11.360Z,22.43
2023-05-10T21:29:38.357Z,22.42
2023-05-10T21:32:08.285Z,22.42
2023-05-10T21:34:35.380Z,22.44
2023-05-10T21:37:02.384Z,22.45
2023-05-10T21:39:29.885Z,22.46
2023-05-10T21:41:57.894Z,22.47
2023-05-10T21:44:28.278Z,22.47
2023-05-10T21:46:55.542Z,22.48
2023-05-10T21:49:22.854Z,22.48
2023-05-10T21:51:50.025Z,22.47
2023-05-10T21:54:17.176Z,22.47
2023-05-10T21:56:44.124Z,22.47
2023-05-10T21:59:11.469Z,22.46
2023-05-10T22:01:39.111Z,22.46
2023-05-10T22:04:06.312Z,22.45
2023-05-10T22:06:33.342Z,22.44
2023-05-10T22:09:00.378Z,22.44
2023-05-10T22:11:27.641Z,22.43
2023-05-10T22:13:54.695Z,22.43
2023-05-10T22:16:21.860Z,22.43
2023-05-10T22:18:49.381Z,22.42
2023-05-10T22:21:16.610Z,22.42
2023-05-10T22:23:43.603Z,22.42
2023-05-10T22:26:10.632Z,22.44
2023-05-10T22:28:37.796Z,22.46
2023-05-10T22:31:09.798Z,22.46
2023-05-10T22:33:36.691Z,22.47
2023-05-10T22:36:04.045Z,22.48
2023-05-10T22:38:31.100Z,22.48
2023-05-10T22:40:58.973Z,22.49
2023-05-10T22:43:25.900Z,22.48
2023-05-10T22:45:53.666Z,22.47
2023-05-10T22:48:21.318Z,22.47
2023-05-10T22:50:48.212Z,22.47
2023-05-10T22:53:15.675Z,22.48
2023-05-10T22:55:42.636Z,22.49
2023-05-10T22:58:10.370Z,22.50
2023-05-10T23:00:38.411Z,22.51
2023-05-10T23:03:06.822Z,22.53
2023-05-10T23:05:35.791Z,22.54
2023-05-10T23:08:02.839Z,22.55
2023-05-10T23:10:29.705Z,22.55
2023-05-10T23:12:56.717Z,22.55
2023-05-10T23:15:23.758Z,22.53
2023-05-10T23:17:51.073Z,22.52
2023-05-10T23:20:18.780Z,22.52
2023-05-10T23:22:46.011Z,22.53
2023-05-10T23:25:13.133Z,22.53
2023-05-10T23:27:40.279Z,22.55
2023-05-10T23:30:07.875Z,22.57
2023-05-10T23:32:34.833Z,22.59
2023-05-10T23:35:02.294Z,22.61
2023-05-10T23:37:29.521Z,22.62
2023-05-10T23:39:56.670Z,22.63
2023-05-10T23:42:23.553Z,22.65
2023-05-10T23:44:53.836Z,22.65
2023-05-10T23:47:20.851Z,22.65
2023-05-10T23:49:49.671Z,22.66
2023-05-10T23:52:16.587Z,22.67
2023-05-10T23:54:45.757Z,22.67
2023-05-10T23:57:12.916Z,22.67
2023-05-10T23:59:39.790Z,22.67
